createdAt,value
2023-06-29T00:00:10.091Z,50.26
2023-06-29T00:02:36.968Z,50.18
2023-06-29T00:05:03.963Z,50.13
2023-06-29T00:07:34.368Z,50.38
2023-06-29T00:10:01.956Z,50.23
2023-06-29T00:12:29.012Z,50.34
2023-06-29T00:14:55.845Z,50.45
2023-06-29T00:17:23.414Z,50.45
2023-06-29T00:19:50.360Z,50.34
2023-06-29T00:22:18.820Z,50.45
2023-06-29T00:24:46.034Z,50.54
2023-06-29T00:27:13.858Z,50.68
2023-06-29T00:29:42.579Z,50.53
2023-06-29T00:32:11.133Z,50.67
2023-06-29T00:34:38.635Z,50.80
2023-06-29T00:37:05.969Z,50.79
2023-06-29T00:39:33.533Z,50.85
2023-06-29T00:42:00.385Z,50.78
2023-06-29T00:44:27.194Z,50.75
2023-06-29T00:46:55.099Z,50.79
2023-06-29T00:49:22.649Z,50.95
2023-06-29T00:51:51.588Z,50.92
2023-06-29T00:54:18.872Z,51.00
2023-06-29T00:56:47.236Z,50.96
2023-06-29T00:59:14.716Z,50.96
2023-06-29T01:01:42.763Z,50.84
2023-06-29T01:04:11.089Z,50.89
2023-06-29T01:06:55.571Z,51.08
2023-06-29T01:09:22.601Z,51.05
2023-06-29T01:11:52.171Z,51.24
2023-06-29T01:14:22.125Z,51.27
2023-06-29T01:16:51.126Z,51.22
2023-06-29T01:19:23.130Z,51.16
2023-06-29T01:21:56.067Z,51.23
2023-06-29T01:24:27.557Z,51.26
2023-06-29T01:26:54.492Z,51.33
2023-06-29T01:29:26.075Z,51.23
2023-06-29T01:32:01.359Z,51.27
2023-06-29T01:34:32.850Z,51.49
2023-06-29T01:37:05.898Z,51.32
2023-06-29T01:39:56.962Z,51.33
2023-06-29T01:42:25.902Z,51.37
2023-06-29T01:44:55.333Z,51.37
2023-06-29T01:47:23.279Z,51.51
2023-06-29T01:49:50.650Z,51.66
2023-06-29T01:52:17.840Z,51.61
2023-06-29T01:54:44.614Z,51.49
2023-06-29T01:57:11.927Z,51.55
2023-06-29T01:59:38.786Z,51.58
2023-06-29T02:02:06.328Z,51.69
2023-06-29T02:04:34.131Z,51.66
2023-06-29T02:07:01.785Z,51.64
2023-06-29T02:09:28.849Z,51.68
2023-06-29T02:11:55.770Z,51.79
2023-06-29T02:14:22.688Z,51.94
2023-06-29T02:16:50.465Z,51.82
2023-06-29T02:19:17.269Z,51.69
2023-06-29T02:21:44.053Z,51.92
2023-06-29T02:24:10.863Z,51.82
2023-06-29T02:26:37.735Z,51.95
2023-06-29T02:29:04.643Z,51.93
2023-06-29T02:31:31.499Z,52.03
2023-06-29T02:33:58.409Z,51.94
2023-06-29T02:36:25.351Z,51.95
2023-06-29T02:38:52.214Z,51.96
2023-06-29T02:41:19.034Z,52.10
2023-06-29T02:43:45.824Z,52.02
2023-06-29T02:46:12.669Z,52.06
2023-06-29T02:48:39.588Z,51.95
2023-06-29T02:51:06.722Z,52.00
2023-06-29T02:53:33.565Z,51.96
2023-06-29T02:56:00.351Z,52.17
2023-06-29T02:58:27.215Z,52.19
2023-06-29T03:00:54.141Z,52.28
2023-06-29T03:03:21.602Z,52.32
2023-06-29T03:05:48.543Z,52.31
2023-06-29T03:08:15.441Z,52.30
2023-06-29T03:10:42.275Z,52.23
2023-06-29T03:13:09.070Z,52.24
2023-06-29T03:15:35.920Z,52.18
2023-06-29T03:18:02.798Z,52.30
2023-06-29T03:20:29.680Z,52.30
2023-06-29T03:22:56.513Z,52.40
2023-06-29T03:25:23.331Z,52.33
2023-06-29T03:27:50.223Z,52.32
2023-06-29T03:30:17.105Z,52.28
2023-06-29T03:32:43.993Z,52.23
2023-06-29T03:35:10.867Z,52.33
2023-06-29T03:37:37.655Z,52.23
2023-06-29T03:40:04.821Z,52.17
2023-06-29T03:42:31.650Z,52.20
2023-06-29T03:44:58.491Z,52.19
2023-06-29T03:47:25.549Z,52.11
2023-06-29T03:49:52.460Z,51.92
2023-06-29T03:52:19.258Z,52.01
2023-06-29T03:54:46.045Z,51.85
2023-06-29T03:57:12.850Z,51.71
2023-06-29T03:59:40.269Z,51.69
2023-06-29T04:02:07.355Z,51.57
2023-06-29T04:04:34.214Z,51.37
2023-06-29T04:07:00.996Z,51.28
2023-06-29T04:09:27.863Z,51.26
2023-06-29T04:11:54.714Z,51.11
2023-06-29T04:14:21.516Z,51.00
2023-06-29T04:16:48.354Z,50.92
2023-06-29T04:19:17.069Z,50.70
2023-06-29T04:21:44.013Z,50.62
2023-06-29T04:24:10.812Z,50.49
2023-06-29T04:26:39.892Z,50.39
2023-06-29T04:29:09.920Z,50.30
2023-06-29T04:31:36.842Z,50.05
2023-06-29T04:34:04.054Z,49.85
2023-06-29T04:36:31.300Z,49.77
2023-06-29T04:38:58.224Z,49.67
2023-06-29T04:41:32.362Z,49.60
2023-06-29T04:44:03.152Z,49.43
2023-06-29T04:46:30.058Z,49.22
2023-06-29T04:48:57.004Z,49.01
2023-06-29T04:51:23.948Z,48.83
2023-06-29T04:53:50.777Z,48.65
2023-06-29T04:56:17.554Z,48.48
2023-06-29T04:58:44.365Z,48.35
2023-06-29T05:01:11.293Z,48.22
2023-06-29T05:03:38.121Z,48.10
2023-06-29T05:06:04.965Z,47.99
2023-06-29T05:08:31.923Z,47.89
2023-06-29T05:10:58.818Z,47.77
2023-06-29T05:13:25.660Z,47.66
2023-06-29T05:15:52.965Z,47.56
2023-06-29T05:18:19.953Z,47.48
2023-06-29T05:20:46.995Z,47.37
2023-06-29T05:23:13.894Z,47.30
2023-06-29T05:25:42.223Z,47.29
2023-06-29T05:28:09.697Z,47.27
2023-06-29T05:30:36.593Z,47.25
2023-06-29T05:33:05.221Z,47.23
2023-06-29T05:35:32.905Z,47.25
2023-06-29T05:37:59.770Z,47.27
2023-06-29T05:40:26.530Z,47.30
2023-06-29T05:42:53.822Z,47.25
2023-06-29T05:45:20.695Z,47.25
2023-06-29T05:47:47.663Z,47.20
2023-06-29T05:50:14.603Z,47.17
2023-06-29T05:52:41.432Z,47.18
2023-06-29T05:55:08.651Z,47.15
2023-06-29T05:57:35.527Z,47.09
2023-06-29T06:00:06.532Z,47.07
2023-06-29T06:02:33.337Z,47.03
2023-06-29T06:05:00.284Z,47.00
2023-06-29T06:07:29.074Z,47.01
2023-06-29T06:09:57.220Z,46.99
2023-06-29T06:12:24.344Z,46.92
2023-06-29T06:14:51.262Z,46.86
2023-06-29T06:17:18.281Z,46.75
2023-06-29T06:19:45.314Z,46.69
2023-06-29T06:22:12.108Z,46.61
2023-06-29T06:24:38.918Z,46.52
2023-06-29T06:27:06.036Z,46.38
2023-06-29T06:29:32.831Z,46.26
2023-06-29T06:31:59.795Z,46.29
2023-06-29T06:34:31.966Z,46.30
2023-06-29T06:36:59.690Z,46.27
2023-06-29T06:39:26.600Z,46.14
2023-06-29T06:41:53.433Z,46.05
2023-06-29T06:44:20.961Z,46.05
2023-06-29T06:46:47.915Z,45.91
2023-06-29T06:49:15.349Z,45.98
2023-06-29T06:51:42.265Z,45.98
2023-06-29T06:54:09.475Z,45.74
2023-06-29T06:56:38.583Z,45.77
2023-06-29T06:59:06.043Z,45.72
2023-06-29T07:01:33.187Z,45.64
2023-06-29T07:04:00.129Z,45.74
2023-06-29T07:06:32.064Z,45.62
2023-06-29T07:09:00.456Z,45.53
2023-06-29T07:11:28.308Z,45.44
2023-06-29T07:13:55.134Z,45.42
2023-06-29T07:16:22.664Z,45.37
2023-06-29T07:21:39.185Z,45.16
2023-06-29T07:24:08.156Z,45.09
2023-06-29T07:26:36.616Z,45.06
2023-06-29T07:29:05.970Z,44.87
2023-06-29T07:31:33.011Z,44.87
2023-06-29T07:33:59.985Z,44.71
2023-06-29T07:36:28.029Z,44.69
2023-06-29T07:38:56.325Z,44.52
2023-06-29T07:41:23.691Z,44.54
2023-06-29T07:43:57.769Z,44.48
2023-06-29T07:46:24.861Z,44.38
2023-06-29T07:48:52.907Z,44.32
2023-06-29T07:51:19.981Z,44.24
2023-06-29T07:53:46.873Z,44.08
2023-06-29T07:56:13.688Z,43.97
2023-06-29T07:58:40.680Z,43.98
2023-06-29T08:01:07.731Z,43.99
2023-06-29T08:03:43.949Z,44.01
2023-06-29T08:08:48.380Z,43.85
2023-06-29T08:11:15.647Z,43.75
2023-06-29T08:13:42.553Z,43.73
2023-06-29T08:16:09.513Z,43.66
2023-06-29T08:18:36.396Z,43.56
2023-06-29T08:21:03.370Z,43.41
2023-06-29T08:23:33.491Z,43.34
2023-06-29T08:26:00.334Z,43.26
2023-06-29T08:28:27.226Z,43.18
2023-06-29T08:30:54.094Z,43.05
2023-06-29T08:33:21.533Z,43.06
2023-06-29T08:35:48.539Z,43.07
2023-06-29T08:38:15.339Z,42.97
2023-06-29T08:40:46.532Z,42.89
2023-06-29T08:43:16.733Z,43.00
2023-06-29T08:45:44.078Z,42.95
2023-06-29T08:48:14.254Z,42.78
2023-06-29T08:51:07.808Z,42.77
2023-06-29T08:53:35.428Z,42.71
2023-06-29T08:56:03.139Z,42.62
2023-06-29T08:58:30.498Z,42.62
2023-06-29T09:00:58.665Z,42.80
2023-06-29T09:03:27.670Z,42.46
2023-06-29T09:05:57.076Z,42.38
2023-06-29T09:08:27.701Z,42.38
2023-06-29T09:10:56.562Z,42.34
2023-06-29T09:13:27.414Z,42.16
2023-06-29T09:15:55.721Z,42.02
2023-06-29T09:18:28.205Z,42.16
2023-06-29T09:20:57.413Z,42.24
2023-06-29T09:23:26.997Z,42.30
2023-06-29T09:25:56.612Z,42.24
2023-06-29T09:28:23.960Z,42.24
2023-06-29T09:30:51.081Z,42.14
2023-06-29T09:33:18.201Z,42.07
2023-06-29T09:35:48.389Z,41.96
2023-06-29T09:38:19.377Z,41.92
2023-06-29T09:40:50.889Z,41.92
2023-06-29T09:43:19.758Z,41.87
2023-06-29T09:45:46.700Z,41.84
2023-06-29T09:50:52.834Z,41.66
2023-06-29T09:53:29.549Z,41.54
2023-06-29T09:55:58.891Z,41.33
2023-06-29T09:58:31.316Z,41.27
2023-06-29T10:01:01.620Z,41.26
2023-06-29T10:03:29.386Z,41.21
2023-06-29T10:06:00.592Z,41.30
2023-06-29T10:08:30.006Z,41.11
2023-06-29T10:11:03.389Z,40.88
2023-06-29T10:13:34.409Z,40.86
2023-06-29T10:16:04.029Z,40.67
2023-06-29T10:18:35.874Z,40.67
2023-06-29T10:21:02.988Z,40.56
2023-06-29T10:23:31.491Z,40.60
2023-06-29T10:26:00.179Z,40.49
2023-06-29T10:28:27.274Z,40.40
2023-06-29T10:30:59.553Z,40.32
2023-06-29T10:33:27.754Z,40.17
2023-06-29T10:35:59.384Z,40.03
2023-06-29T10:38:34.043Z,40.14
2023-06-29T10:41:01.702Z,40.01
2023-06-29T10:43:29.115Z,39.71
2023-06-29T10:45:55.908Z,39.85
2023-06-29T10:48:42.983Z,40.02
2023-06-29T10:51:10.083Z,39.79
2023-06-29T10:53:36.957Z,39.46
2023-06-29T10:56:03.893Z,39.20
2023-06-29T10:58:38.700Z,39.31
2023-06-29T11:01:05.768Z,39.17
2023-06-29T11:03:32.889Z,38.83
2023-06-29T11:06:03.102Z,38.44
2023-06-29T11:08:32.461Z,38.51
2023-06-29T11:11:14.481Z,38.65
2023-06-29T11:13:42.182Z,38.36
2023-06-29T11:16:09.112Z,38.05
2023-06-29T11:18:35.927Z,38.04
2023-06-29T11:21:03.304Z,37.93
2023-06-29T11:23:30.144Z,38.00
2023-06-29T11:26:01.315Z,38.12
2023-06-29T11:28:31.928Z,38.14
2023-06-29T11:30:59.156Z,38.08
2023-06-29T11:36:12.823Z,37.94
2023-06-29T11:38:39.772Z,37.62
2023-06-29T11:41:07.291Z,37.62
2023-06-29T11:43:34.758Z,37.55
2023-06-29T11:46:02.426Z,37.35
2023-06-29T11:48:31.017Z,37.38
2023-06-29T11:51:01.843Z,37.42
2023-06-29T11:53:29.578Z,37.28
2023-06-29T11:55:57.176Z,37.09
2023-06-29T11:58:24.129Z,36.91
2023-06-29T12:00:59.064Z,36.85
2023-06-29T12:03:27.944Z,36.91
2023-06-29T12:05:59.913Z,36.78
2023-06-29T12:08:26.892Z,36.81
2023-06-29T12:10:53.972Z,36.94
2023-06-29T12:13:22.028Z,36.70
2023-06-29T12:18:18.835Z,37.09
2023-06-29T12:20:48.644Z,37.14
2023-06-29T12:23:16.108Z,37.19
2023-06-29T12:25:48.507Z,37.10
2023-06-29T12:28:15.979Z,37.20
2023-06-29T12:30:43.578Z,37.20
2023-06-29T12:33:11.944Z,37.21
2023-06-29T12:35:39.197Z,37.16
2023-06-29T12:38:07.003Z,36.92
2023-06-29T12:40:34.843Z,36.52
2023-06-29T12:43:02.156Z,36.16
2023-06-29T12:45:29.448Z,36.22
2023-06-29T12:47:56.551Z,36.01
2023-06-29T12:50:23.715Z,36.11
2023-06-29T12:52:50.665Z,36.27
2023-06-29T12:55:17.501Z,36.09
2023-06-29T12:57:45.425Z,35.89
2023-06-29T13:00:13.888Z,35.94
2023-06-29T13:02:41.731Z,35.90
2023-06-29T13:05:09.424Z,35.85
2023-06-29T13:07:37.188Z,35.79
2023-06-29T13:10:04.994Z,35.93
2023-06-29T13:12:32.014Z,35.82
2023-06-29T13:15:01.662Z,36.04
2023-06-29T13:17:28.552Z,36.01
2023-06-29T13:19:55.404Z,36.02
2023-06-29T13:22:24.195Z,36.30
2023-06-29T13:24:51.181Z,36.54
2023-06-29T13:27:18.233Z,36.68
2023-06-29T13:29:45.028Z,36.72
2023-06-29T13:32:11.830Z,36.69
2023-06-29T13:34:38.757Z,36.78
2023-06-29T13:37:05.940Z,36.80
2023-06-29T13:39:32.906Z,36.80
2023-06-29T13:41:59.820Z,36.73
2023-06-29T13:44:26.624Z,36.67
2023-06-29T13:46:53.477Z,36.65
2023-06-29T13:49:21.188Z,36.62
2023-06-29T13:51:49.536Z,36.66
2023-06-29T13:54:16.998Z,36.68
2023-06-29T13:56:44.618Z,36.72
2023-06-29T13:59:11.906Z,36.70
2023-06-29T14:01:41.485Z,36.64
2023-06-29T14:04:10.716Z,36.62
2023-06-29T14:06:43.186Z,36.55
2023-06-29T14:09:11.181Z,36.54
2023-06-29T14:11:38.255Z,36.59
2023-06-29T14:14:05.817Z,36.52
2023-06-29T14:16:33.303Z,36.32
2023-06-29T14:19:01.222Z,35.59
2023-06-29T14:21:28.418Z,35.65
2023-06-29T14:23:55.685Z,35.54
2023-06-29T14:26:23.178Z,35.45
2023-06-29T14:28:50.108Z,35.64
2023-06-29T14:31:18.554Z,35.55
2023-06-29T14:33:46.183Z,35.58
2023-06-29T14:36:13.778Z,35.04
2023-06-29T14:38:40.684Z,34.97
2023-06-29T14:41:07.542Z,35.10
2023-06-29T14:43:34.475Z,35.50
2023-06-29T14:46:01.410Z,35.42
2023-06-29T14:48:28.507Z,35.29
2023-06-29T14:50:55.473Z,35.51
2023-06-29T14:53:23.714Z,34.87
2023-06-29T14:55:51.407Z,34.62
2023-06-29T14:58:18.381Z,34.64
2023-06-29T15:00:46.000Z,34.63
2023-06-29T15:03:13.224Z,34.87
2023-06-29T15:05:40.433Z,34.27
2023-06-29T15:08:07.328Z,33.95
2023-06-29T15:10:34.276Z,34.57
2023-06-29T15:13:01.180Z,34.54
2023-06-29T15:15:28.201Z,34.45
2023-06-29T15:17:55.461Z,34.01
2023-06-29T15:20:22.455Z,34.38
2023-06-29T15:22:49.666Z,34.50
2023-06-29T15:25:17.103Z,34.38
2023-06-29T15:27:44.353Z,33.98
2023-06-29T15:30:11.571Z,33.88
2023-06-29T15:32:38.494Z,34.21
2023-06-29T15:35:05.778Z,34.15
2023-06-29T15:37:34.108Z,34.18
2023-06-29T15:40:01.202Z,34.26
2023-06-29T15:42:29.644Z,33.70
2023-06-29T15:44:56.783Z,33.79
2023-06-29T15:47:23.874Z,33.88
2023-06-29T15:49:50.787Z,34.02
2023-06-29T15:52:17.904Z,34.07
2023-06-29T15:54:44.935Z,33.95
2023-06-29T15:57:12.462Z,33.86
2023-06-29T15:59:39.428Z,34.09
2023-06-29T16:02:07.215Z,33.90
2023-06-29T16:04:34.046Z,34.13
2023-06-29T16:07:00.969Z,34.18
2023-06-29T16:09:30.986Z,34.21
2023-06-29T16:11:57.803Z,34.12
2023-06-29T16:14:24.615Z,34.30
2023-06-29T16:16:51.701Z,34.18
2023-06-29T16:19:18.939Z,34.24
2023-06-29T16:21:46.733Z,34.10
2023-06-29T16:24:13.836Z,34.13
2023-06-29T16:26:40.790Z,34.07
2023-06-29T16:29:07.583Z,33.94
2023-06-29T16:31:35.048Z,34.00
2023-06-29T16:34:02.015Z,33.89
2023-06-29T16:36:28.920Z,33.96
2023-06-29T16:38:55.771Z,34.05
2023-06-29T16:41:22.749Z,33.93
2023-06-29T16:43:50.596Z,34.38
2023-06-29T16:46:17.554Z,34.48
2023-06-29T16:48:57.822Z,34.40
2023-06-29T16:51:26.257Z,34.41
2023-06-29T16:53:53.217Z,34.29
2023-06-29T16:56:20.106Z,34.34
2023-06-29T16:58:47.553Z,34.56
2023-06-29T17:01:14.529Z,34.46
2023-06-29T17:03:41.583Z,34.63
2023-06-29T17:06:08.622Z,34.52
2023-06-29T17:08:35.542Z,34.37
2023-06-29T17:11:02.532Z,34.31
2023-06-29T17:13:29.381Z,34.46
2023-06-29T17:15:56.550Z,34.50
2023-06-29T17:18:23.572Z,34.51
2023-06-29T17:20:50.652Z,34.55
2023-06-29T17:23:18.982Z,34.61
2023-06-29T17:25:50.625Z,34.64
2023-06-29T17:28:19.210Z,34.78
2023-06-29T17:30:46.630Z,34.77
2023-06-29T17:33:15.225Z,34.84
2023-06-29T17:35:42.212Z,34.89
2023-06-29T17:38:10.009Z,35.01
2023-06-29T17:40:37.005Z,35.05
2023-06-29T17:43:03.992Z,35.12
2023-06-29T17:45:31.022Z,35.13
2023-06-29T17:47:58.519Z,35.17
2023-06-29T17:50:25.363Z,35.29
2023-06-29T17:52:52.482Z,35.26
2023-06-29T17:55:19.610Z,35.30
2023-06-29T17:57:46.853Z,35.29
2023-06-29T18:00:16.448Z,35.31
2023-06-29T18:02:44.038Z,35.35
2023-06-29T18:05:11.364Z,35.42
2023-06-29T18:07:39.387Z,35.50
2023-06-29T18:10:08.588Z,35.56
2023-06-29T18:12:38.104Z,35.57
2023-06-29T18:15:07.596Z,35.74
2023-06-29T18:17:35.768Z,35.79
2023-06-29T18:20:03.482Z,35.83
2023-06-29T18:22:35.338Z,35.94
2023-06-29T18:25:02.563Z,36.03
2023-06-29T18:27:30.579Z,36.19
2023-06-29T18:29:57.654Z,36.30
2023-06-29T18:32:24.902Z,36.39
2023-06-29T18:34:52.285Z,36.42
2023-06-29T18:37:20.074Z,36.59
2023-06-29T18:39:47.475Z,36.77
2023-06-29T18:42:18.165Z,36.88
2023-06-29T18:44:45.542Z,37.00
2023-06-29T18:47:14.976Z,37.18
2023-06-29T18:49:51.417Z,37.30
2023-06-29T18:52:21.413Z,37.32
2023-06-29T18:54:48.941Z,37.48
2023-06-29T18:57:16.348Z,37.70
2023-06-29T18:59:44.039Z,37.84
2023-06-29T19:02:11.088Z,37.97
2023-06-29T19:04:38.156Z,38.15
2023-06-29T19:07:05.326Z,38.31
2023-06-29T19:09:32.914Z,38.48
2023-06-29T19:12:03.435Z,38.70
2023-06-29T19:14:30.438Z,38.82
2023-06-29T19:16:57.817Z,39.03
2023-06-29T19:19:26.109Z,39.07
2023-06-29T19:21:54.159Z,39.27
2023-06-29T19:24:21.706Z,39.45
2023-06-29T19:26:48.672Z,39.63
2023-06-29T19:29:15.564Z,39.73
2023-06-29T19:31:44.856Z,39.84
2023-06-29T19:34:12.989Z,39.97
2023-06-29T19:36:40.153Z,40.12
2023-06-29T19:39:07.304Z,40.25
2023-06-29T19:41:34.569Z,40.34
2023-06-29T19:44:01.830Z,40.49
2023-06-29T19:46:29.065Z,40.56
2023-06-29T19:48:56.299Z,40.59
2023-06-29T19:51:23.587Z,40.71
2023-06-29T19:53:50.409Z,40.90
2023-06-29T19:56:17.302Z,40.93
2023-06-29T19:58:44.632Z,41.06
2023-06-29T20:01:12.052Z,41.17
2023-06-29T20:03:40.035Z,41.22
2023-06-29T20:06:09.918Z,41.37
2023-06-29T20:08:37.735Z,41.36
2023-06-29T20:11:05.086Z,41.42
2023-06-29T20:13:32.603Z,41.51
2023-06-29T20:16:00.288Z,41.61
2023-06-29T20:18:27.489Z,41.67
2023-06-29T20:20:54.844Z,41.75
2023-06-29T20:23:22.632Z,41.83
2023-06-29T20:25:50.236Z,41.86
2023-06-29T20:28:17.984Z,41.87
2023-06-29T20:30:45.535Z,41.95
2023-06-29T20:33:13.168Z,42.03
2023-06-29T20:35:40.275Z,42.10
2023-06-29T20:38:07.778Z,42.16
2023-06-29T20:40:34.934Z,42.19
2023-06-29T20:43:02.061Z,42.20
2023-06-29T20:45:29.918Z,42.26
2023-06-29T20:47:57.888Z,42.29
2023-06-29T20:50:24.943Z,42.37
2023-06-29T20:52:52.911Z,42.46
2023-06-29T20:55:20.207Z,42.34
2023-06-29T20:57:47.371Z,42.43
2023-06-29T21:00:14.871Z,42.50
2023-06-29T21:02:42.039Z,42.51
2023-06-29T21:05:10.050Z,42.58
2023-06-29T21:07:37.194Z,42.65
2023-06-29T21:10:04.441Z,42.64
2023-06-29T21:12:31.501Z,42.73
2023-06-29T21:14:58.821Z,42.74
2023-06-29T21:17:26.134Z,42.78
2023-06-29T21:19:53.282Z,42.74
2023-06-29T21:22:20.434Z,42.83
2023-06-29T21:24:48.345Z,42.83
2023-06-29T21:27:19.153Z,42.88
2023-06-29T21:29:47.485Z,42.94
2023-06-29T21:32:15.487Z,43.01
2023-06-29T21:34:42.616Z,43.01
2023-06-29T21:37:10.137Z,43.12
2023-06-29T21:39:37.018Z,43.08
2023-06-29T21:42:04.270Z,43.21
2023-06-29T21:44:31.066Z,43.15
2023-06-29T21:46:58.063Z,43.27
2023-06-29T21:49:24.983Z,43.25
2023-06-29T21:51:52.295Z,43.27
2023-06-29T21:54:19.164Z,43.36
2023-06-29T21:56:46.081Z,43.40
2023-06-29T21:59:12.868Z,43.40
2023-06-29T22:01:39.801Z,43.45
2023-06-29T22:04:06.845Z,43.44
2023-06-29T22:06:33.813Z,43.52
2023-06-29T22:09:04.044Z,43.62
2023-06-29T22:11:30.995Z,43.57
2023-06-29T22:13:57.842Z,43.60
2023-06-29T22:16:24.853Z,43.68
2023-06-29T22:18:52.231Z,43.67
2023-06-29T22:21:25.457Z,43.67
2023-06-29T22:23:53.927Z,43.72
2023-06-29T22:26:22.044Z,43.68
2023-06-29T22:28:49.306Z,43.69
2023-06-29T22:31:18.736Z,43.71
2023-06-29T22:33:46.524Z,43.85
2023-06-29T22:38:59.042Z,43.95
2023-06-29T22:41:25.898Z,43.99
2023-06-29T22:43:58.513Z,44.07
2023-06-29T22:46:26.450Z,44.11
2023-06-29T22:48:53.508Z,44.21
2023-06-29T22:51:25.500Z,44.21
2023-06-29T22:53:53.177Z,44.28
2023-06-29T22:56:23.476Z,44.32
2023-06-29T22:59:10.105Z,44.36
2023-06-29T23:01:37.805Z,44.42
2023-06-29T23:04:08.071Z,44.49
2023-06-29T23:06:41.888Z,44.49
2023-06-29T23:09:11.892Z,44.55
2023-06-29T23:11:39.341Z,44.59
2023-06-29T23:14:06.616Z,44.58
2023-06-29T23:16:33.690Z,44.67
2023-06-29T23:19:01.651Z,44.71
2023-06-29T23:21:28.879Z,44.68
2023-06-29T23:23:56.093Z,44.85
2023-06-29T23:26:24.101Z,44.84
2023-06-29T23:28:54.312Z,44.89
2023-06-29T23:31:21.977Z,44.94
2023-06-29T23:33:49.624Z,44.92
2023-06-29T23:36:22.411Z,45.07
2023-06-29T23:38:49.999Z,45.03
2023-06-29T23:41:18.319Z,45.12
2023-06-29T23:43:45.920Z,45.14
2023-06-29T23:46:13.440Z,45.18
2023-06-29T23:48:43.315Z,45.16
2023-06-29T23:51:10.328Z,45.16
2023-06-29T23:53:39.970Z,45.19
2023-06-29T23:56:06.900Z,45.20
2023-06-29T23:58:33.760Z,45.21
